Time;durP1;ratioP1;P1;durP2;ratioP2;P2;SDS_P1;SDS_P2;PMS_P1;PMS_P2;Temp;Humidity;BMP_temperature;BMP_pressure;BME280_temperature;BME280_humidity;BME280_pressure;Samples;Min_cycle;Max_cycle;Signal;HPM_P1;HPM_P2
2022/01/18 00:00:42;;;;;;;;;;;;;;;;;;2213383;59;17729;-69
2022/01/18 00:03:15;;;;;;;;;;;;;;;;;;2208744;59;14560;-69
2022/01/18 00:05:50;;;;;;;;;;;;;;;;;;2208619;67;20532;-69
2022/01/18 00:08:23;;;;;;;;;;;;;;;;;;2213538;63;19553;-69
2022/01/18 00:10:56;;;;;;;;;;;;;;;;;;2213522;67;14301;-69
2022/01/18 00:13:40;;;;;;;;;;;;;;;;;;2211910;59;21457;-69
2022/01/18 00:16:26;;;;;;;;;;;;;;;;;;2213160;67;18862;-69
2022/01/18 00:19:07;;;;;;;;;;;;;;;;;;2212648;67;20826;-69
2022/01/18 00:21:53;;;;;;;;;;;;;;;;;;2211594;64;17495;-70
2022/01/18 00:24:26;;;;;;;;;;;;;;;;;;2212764;59;21649;-69
2022/01/18 00:26:59;;;;;;;;;;;;;;;;;;2213135;63;18724;-70
2022/01/18 00:29:38;;;;;;;;;;;;;;;;;;2212607;59;17678;-69
2022/01/18 00:32:18;;;;;;;;;;;;;;;;;;2213298;64;18436;-69
2022/01/18 00:34:55;;;;;;;;;;;;;;;;;;2212897;59;13983;-69
2022/01/18 00:37:34;;;;;;;;;;;;;;;;;;2212538;59;19860;-69
2022/01/18 00:40:08;;;;;;;;;;;;;;;;;;2213867;59;24385;-70
2022/01/18 00:42:41;;;;;;;;;;;;;;;;;;2213405;59;25173;-70
2022/01/18 00:45:17;;;;;;;;;;;;;;;;;;2209838;64;15972;-69
2022/01/18 00:47:50;;;;;;;;;;;;;;;;;;2213065;59;18284;-70
2022/01/18 00:50:26;;;;;;;;;;;;;;;;;;2214365;59;17191;-69
2022/01/18 00:52:59;;;;;;;;;;;;;;;;;;2212787;59;17479;-70
2022/01/18 00:55:36;;;;;;;;;;;;;;;;;;2213057;63;19528;-69
2022/01/18 00:58:09;;;;;;;;;;;;;;;;;;2214613;59;23863;-69
2022/01/18 01:00:45;;;;;;;;;;;;;;;;;;2213891;59;24426;-70
2022/01/18 01:03:18;;;;;;;;;;;;;;;;;;2213250;59;16823;-69
2022/01/18 01:05:51;;;;;;;;;;;;;;;;;;2212991;59;14616;-69
2022/01/18 01:08:24;;;;;;;;;;;;;;;;;;2214205;63;15515;-70
2022/01/18 01:10:57;;;;;;;;;;;;;;;;;;2214097;63;20514;-69
2022/01/18 01:13:31;;;;;;;;;;;;;;;;;;2212738;59;25524;-70
2022/01/18 01:16:23;;;;;;;;;;;;;;;;;;2214116;67;33636;-70
2022/01/18 01:19:11;;;;;;;;;;;;;;;;;;2213790;59;15322;-70
2022/01/18 01:36:18;;;;;;;;;;;;;;;;;;2214663;59;20257;-69
2022/01/18 01:44:43;;;;;;;;;;;;;;;;;;2217139;58;16300;-69
2022/01/18 01:47:20;;;;;;;;;;;;;;;;;;2217162;59;25060;-69
2022/01/18 01:49:56;;;;;;;;;;;;;;;;;;2216543;59;19846;-69
2022/01/18 01:52:29;;;;;;;;;;;;;;;;;;2219110;58;20146;-69
2022/01/18 01:55:02;;;;;;;;;;;;;;;;;;2219934;58;20203;-69
2022/01/18 01:57:35;;;;;;;;;;;;;;;;;;2219358;58;27223;-69
2022/01/18 02:00:10;;;;;;;;;;;;;;;;;;2213547;66;16873;-69
2022/01/18 02:02:43;;;;;;;;;;;;;;;;;;2218470;66;25126;-69
2022/01/18 02:05:20;;;;;;;;;;;;;;;;;;2217165;58;21763;-69
2022/01/18 02:07:53;;;;;;;;;;;;;;;;;;2214456;59;16394;-69
2022/01/18 02:10:26;;;;;;;;;;;;;;;;;;2214741;66;21463;-69
2022/01/18 02:13:00;;;;;;;;;;;;;;;;;;2217369;59;22399;-69
2022/01/18 02:15:37;;;;;;;;;;;;;;;;;;2216728;58;26338;-69
2022/01/18 02:23:50;;;;;;;;;;;;;;;;;;2215874;58;23133;-69
2022/01/18 02:26:24;;;;;;;;;;;;;;;;;;2218757;66;22168;-69
2022/01/18 02:28:57;;;;;;;;;;;;;;;;;;2218981;59;14192;-69
2022/01/18 02:31:30;;;;;;;;;;;;;;;;;;2213223;58;18350;-69
2022/01/18 02:34:04;;;;;;;;;;;;;;;;;;2214216;59;26898;-69
2022/01/18 02:36:41;;;;;;;;;;;;;;;;;;2218203;59;16550;-69
2022/01/18 02:39:15;;;;;;;;;;;;;;;;;;2213512;59;19521;-69
2022/01/18 02:41:53;;;;;;;;;;;;;;;;;;2217482;59;23186;-69
2022/01/18 02:44:27;;;;;;;;;;;;;;;;;;2217459;58;21768;-69
2022/01/18 02:47:01;;;;;;;;;;;;;;;;;;2217042;58;22464;-69
2022/01/18 02:49:34;;;;;;;;;;;;;;;;;;2216940;59;23612;-69
2022/01/18 02:52:10;;;;;;;;;;;;;;;;;;2214735;59;16121;-69
2022/01/18 02:54:43;;;;;;;;;;;;;;;;;;2218213;66;16882;-69
2022/01/18 02:57:25;;;;;;;;;;;;;;;;;;2214072;59;16768;-69
2022/01/18 03:00:15;;;;;;;;;;;;;;;;;;2211492;59;20787;-69
2022/01/18 03:05:37;;;;;;;;;;;;;;;;;;2216617;58;25131;-69
2022/01/18 03:08:15;;;;;;;;;;;;;;;;;;2217829;58;35039;-69
2022/01/18 03:10:49;;;;;;;;;;;;;;;;;;2215893;66;22760;-69
2022/01/18 03:13:22;;;;;;;;;;;;;;;;;;2211238;58;20872;-69
2022/01/18 03:15:55;;;;;;;;;;;;;;;;;;2219208;58;18660;-69
2022/01/18 03:18:28;;;;;;;;;;;;;;;;;;2218010;66;30944;-69
2022/01/18 03:21:01;;;;;;;;;;;;;;;;;;2218058;59;17018;-69
2022/01/18 03:23:37;;;;;;;;;;;;;;;;;;2216514;59;35223;-69
2022/01/18 03:26:15;;;;;;;;;;;;;;;;;;2217852;66;27012;-69
2022/01/18 03:28:46;;;;;;;;;;;;;;;;;;2217717;66;19297;-69
2022/01/18 03:31:19;;;;;;;;;;;;;;;;;;2217567;59;16740;-69
2022/01/18 03:33:52;;;;;;;;;;;;;;;;;;2214708;59;19348;-69
2022/01/18 03:36:25;;;;;;;;;;;;;;;;;;2217373;58;19431;-69
2022/01/18 03:39:01;;;;;;;;;;;;;;;;;;2216956;59;15030;-69
2022/01/18 03:41:34;;;;;;;;;;;;;;;;;;2216804;59;27885;-69
2022/01/18 03:44:08;;;;;;;;;;;;;;;;;;2216992;58;17018;-69
2022/01/18 03:46:41;;;;;;;;;;;;;;;;;;2217510;59;16382;-69
2022/01/18 03:49:14;;;;;;;;;;;;;;;;;;2216652;59;18687;-69
2022/01/18 03:51:48;;;;;;;;;;;;;;;;;;2215426;59;18905;-69
2022/01/18 03:54:24;;;;;;;;;;;;;;;;;;2218103;63;17780;-69
2022/01/18 03:56:57;;;;;;;;;;;;;;;;;;2218446;59;21705;-69
2022/01/18 03:59:30;;;;;;;;;;;;;;;;;;2217689;63;30369;-69
2022/01/18 04:02:03;;;;;;;;;;;;;;;;;;2218918;58;15514;-69
2022/01/18 04:04:36;;;;;;;;;;;;;;;;;;2217133;58;17828;-69
2022/01/18 04:07:10;;;;;;;;;;;;;;;;;;2212501;59;21021;-69
2022/01/18 04:09:46;;;;;;;;;;;;;;;;;;2217387;59;23579;-69
2022/01/18 04:12:19;;;;;;;;;;;;;;;;;;2218405;59;17380;-69
2022/01/18 04:14:53;;;;;;;;;;;;;;;;;;2214566;59;26550;-69
2022/01/18 04:17:47;;;;;;;;;;;;;;;;;;2218654;63;19486;-69
2022/01/18 04:26:03;;;;;;;;;;;;;;;;;;2217857;63;15598;-69
2022/01/18 04:28:41;;;;;;;;;;;;;;;;;;2218640;66;18805;-69
2022/01/18 04:31:14;;;;;;;;;;;;;;;;;;2218714;58;18924;-69
2022/01/18 04:33:47;;;;;;;;;;;;;;;;;;2214222;59;19825;-69
2022/01/18 04:36:20;;;;;;;;;;;;;;;;;;2217238;59;70359;-69
2022/01/18 04:38:53;;;;;;;;;;;;;;;;;;2217905;59;14833;-71
2022/01/18 04:41:31;;;;;;;;;;;;;;;;;;2216478;58;16625;-69
2022/01/18 04:48:23;;;;;;;;;;;;;;;;;;2213947;59;20413;-69
2022/01/18 04:49:52;;;;;;;;;;;;;;;;;;2219229;58;17220;-69
2022/01/18 04:52:25;;;;;;;;;;;;;;;;;;2218098;58;21410;-69
2022/01/18 04:55:02;;;;;;;;;;;;;;;;;;2217779;59;16033;-69
2022/01/18 04:57:56;;;;;;;;;;;;;;;;;;2218888;59;22148;-69
2022/01/18 05:00:29;;;;;;;;;;;;;;;;;;2219207;59;26129;-69
2022/01/18 05:03:02;;;;;;;;;;;;;;;;;;2215019;58;16329;-69
2022/01/18 05:05:37;;;;;;;;;;;;;;;;;;2216835;58;15187;-69
2022/01/18 05:08:13;;;;;;;;;;;;;;;;;;2217706;58;16292;-70
2022/01/18 05:10:52;;;;;;;;;;;;;;;;;;2219548;58;16563;-69
2022/01/18 05:19:10;;;;;;;;;;;;;;;;;;2218575;59;16192;-69
2022/01/18 05:24:30;;;;;;;;;;;;;;;;;;2208403;59;17125;-69
2022/01/18 05:27:04;;;;;;;;;;;;;;;;;;2217682;58;16724;-69
2022/01/18 05:29:40;;;;;;;;;;;;;;;;;;2215902;58;15913;-69
2022/01/18 05:32:13;;;;;;;;;;;;;;;;;;2218413;58;18342;-69
2022/01/18 05:34:48;;;;;;;;;;;;;;;;;;2217106;59;14572;-69
2022/01/18 05:37:21;;;;;;;;;;;;;;;;;;2217937;59;26052;-69
2022/01/18 05:39:54;;;;;;;;;;;;;;;;;;2219092;58;20352;-69
2022/01/18 05:42:28;;;;;;;;;;;;;;;;;;2218963;58;27258;-70
2022/01/18 05:45:03;;;;;;;;;;;;;;;;;;2214411;59;18171;-69
2022/01/18 05:47:37;;;;;;;;;;;;;;;;;;2217492;58;26465;-69
2022/01/18 05:50:10;;;;;;;;;;;;;;;;;;2219228;66;16345;-68
2022/01/18 05:52:44;;;;;;;;;;;;;;;;;;2218931;58;18355;-69
2022/01/18 05:55:17;;;;;;;;;;;;;;;;;;2214536;59;16343;-69
2022/01/18 05:57:51;;;;;;;;;;;;;;;;;;2212746;58;15372;-69
2022/01/18 06:00:28;;;;;;;;;;;;;;;;;;2217036;59;22672;-69
2022/01/18 06:03:11;;;;;;;;;;;;;;;;;;2214633;66;19359;-69
2022/01/18 06:08:33;;;;;;;;;;;;;;;;;;2216861;66;16581;-69
2022/01/18 06:11:06;;;;;;;;;;;;;;;;;;2219233;59;14212;-69
2022/01/18 06:13:39;;;;;;;;;;;;;;;;;;2217661;59;21565;-69
2022/01/18 06:16:15;;;;;;;;;;;;;;;;;;2220167;58;23014;-68
2022/01/18 06:18:48;;;;;;;;;;;;;;;;;;2219736;59;18735;-69
2022/01/18 06:21:22;;;;;;;;;;;;;;;;;;2218125;59;22918;-69
2022/01/18 06:23:55;;;;;;;;;;;;;;;;;;2217994;58;33404;-69
2022/01/18 06:26:28;;;;;;;;;;;;;;;;;;2217559;59;15339;-69
2022/01/18 06:29:02;;;;;;;;;;;;;;;;;;2218012;59;37208;-69
2022/01/18 06:31:38;;;;;;;;;;;;;;;;;;2216958;59;22665;-69
2022/01/18 06:34:11;;;;;;;;;;;;;;;;;;2217886;58;19484;-69
2022/01/18 06:36:44;;;;;;;;;;;;;;;;;;2216658;59;49703;-69
2022/01/18 06:39:18;;;;;;;;;;;;;;;;;;2217911;58;29334;-69
2022/01/18 06:41:51;;;;;;;;;;;;;;;;;;2214062;59;16381;-69
2022/01/18 06:44:25;;;;;;;;;;;;;;;;;;2217429;58;16041;-69
2022/01/18 06:47:01;;;;;;;;;;;;;;;;;;2217530;59;16898;-69
2022/01/18 06:49:34;;;;;;;;;;;;;;;;;;2216148;59;23428;-69
2022/01/18 06:52:07;;;;;;;;;;;;;;;;;;2215499;58;19849;-69
2022/01/18 06:54:41;;;;;;;;;;;;;;;;;;2215747;59;47713;-70
2022/01/18 06:57:14;;;;;;;;;;;;;;;;;;2216616;63;17983;-69
2022/01/18 06:59:47;;;;;;;;;;;;;;;;;;2215477;59;19433;-68
2022/01/18 07:02:23;;;;;;;;;;;;;;;;;;2217167;59;16893;-69
2022/01/18 07:04:56;;;;;;;;;;;;;;;;;;2213426;59;22909;-69
2022/01/18 07:07:29;;;;;;;;;;;;;;;;;;2216657;58;28908;-69
2022/01/18 07:10:02;;;;;;;;;;;;;;;;;;2217815;58;25879;-69
2022/01/18 07:12:35;;;;;;;;;;;;;;;;;;2216050;59;16607;-69
2022/01/18 07:15:09;;;;;;;;;;;;;;;;;;2216202;59;18015;-69
2022/01/18 07:17:45;;;;;;;;;;;;;;;;;;2216263;59;20125;-69
2022/01/18 07:20:18;;;;;;;;;;;;;;;;;;2217798;59;15634;-69
2022/01/18 07:22:51;;;;;;;;;;;;;;;;;;2220683;58;17053;-69
2022/01/18 07:25:25;;;;;;;;;;;;;;;;;;2204784;54;19047;-72
2022/01/18 07:27:59;;;;;;;;;;;;;;;;;;2199090;59;19271;-72
2022/01/18 07:30:32;;;;;;;;;;;;;;;;;;2202879;59;17212;-72
2022/01/18 07:33:08;;;;;;;;;;;;;;;;;;2203181;59;15124;-72
2022/01/18 07:35:41;;;;;;;;;;;;;;;;;;2199941;59;16093;-72
2022/01/18 07:38:17;;;;;;;;;;;;;;;;;;2204425;67;14560;-72
2022/01/18 07:40:53;;;;;;;;;;;;;;;;;;2205119;59;16848;-72
2022/01/18 07:43:26;;;;;;;;;;;;;;;;;;2200772;59;21561;-72
2022/01/18 07:45:59;;;;;;;;;;;;;;;;;;2203769;59;16128;-72
2022/01/18 07:48:35;;;;;;;;;;;;;;;;;;2203924;59;21638;-72
2022/01/18 07:51:08;;;;;;;;;;;;;;;;;;2205567;59;21544;-72
2022/01/18 07:53:42;;;;;;;;;;;;;;;;;;2203367;59;21172;-72
2022/01/18 07:56:15;;;;;;;;;;;;;;;;;;2207919;64;14130;-72
2022/01/18 07:58:48;;;;;;;;;;;;;;;;;;2204411;59;23064;-72
2022/01/18 08:01:21;;;;;;;;;;;;;;;;;;2195396;59;22397;-72
2022/01/18 08:03:57;;;;;;;;;;;;;;;;;;2196915;59;20803;-72
2022/01/18 08:06:30;;;;;;;;;;;;;;;;;;2202520;59;15827;-72
2022/01/18 08:09:03;;;;;;;;;;;;;;;;;;2200516;59;13548;-72
2022/01/18 08:11:36;;;;;;;;;;;;;;;;;;2195950;59;20712;-72
2022/01/18 08:14:13;;;;;;;;;;;;;;;;;;2202539;67;21276;-72
2022/01/18 08:17:00;;;;;;;;;;;;;;;;;;2202115;67;31812;-72
2022/01/18 08:19:36;;;;;;;;;;;;;;;;;;2202756;67;19573;-72
2022/01/18 08:22:10;;;;;;;;;;;;;;;;;;2203087;59;16010;-72
2022/01/18 08:24:44;;;;;;;;;;;;;;;;;;2203059;59;22376;-72
2022/01/18 08:27:19;;;;;;;;;;;;;;;;;;2194677;59;20033;-70
2022/01/18 08:29:52;;;;;;;;;;;;;;;;;;2195611;59;25025;-70
2022/01/18 08:32:25;;;;;;;;;;;;;;;;;;2200291;59;15319;-70
2022/01/18 08:35:01;;;;;;;;;;;;;;;;;;2195243;59;19971;-71
2022/01/18 08:37:34;;;;;;;;;;;;;;;;;;2204654;64;20252;-70
2022/01/18 08:40:08;;;;;;;;;;;;;;;;;;2202741;59;22432;-70
2022/01/18 08:42:41;;;;;;;;;;;;;;;;;;2201848;59;15840;-70
2022/01/18 08:45:14;;;;;;;;;;;;;;;;;;2195460;59;22027;-70
2022/01/18 08:47:47;;;;;;;;;;;;;;;;;;2200793;59;23356;-70
2022/01/18 08:50:23;;;;;;;;;;;;;;;;;;2197525;59;19816;-70
2022/01/18 08:52:56;;;;;;;;;;;;;;;;;;2195021;59;24591;-69
2022/01/18 08:55:32;;;;;;;;;;;;;;;;;;2203186;59;43604;-69
2022/01/18 08:58:08;;;;;;;;;;;;;;;;;;2195294;59;15396;-70
2022/01/18 09:00:41;;;;;;;;;;;;;;;;;;2205010;59;42463;-70
2022/01/18 09:03:15;;;;;;;;;;;;;;;;;;2197206;59;31677;-70
2022/01/18 09:05:51;;;;;;;;;;;;;;;;;;2202761;59;17925;-70
2022/01/18 09:08:24;;;;;;;;;;;;;;;;;;2202102;59;14433;-70
2022/01/18 09:10:57;;;;;;;;;;;;;;;;;;2203979;67;23695;-70
2022/01/18 09:13:31;;;;;;;;;;;;;;;;;;2200108;64;25434;-69
2022/01/18 09:16:06;;;;;;;;;;;;;;;;;;2205433;67;22653;-69
2022/01/18 09:18:40;;;;;;;;;;;;;;;;;;2204876;59;25320;-70
2022/01/18 09:21:16;;;;;;;;;;;;;;;;;;2204414;64;22663;-70
2022/01/18 09:23:49;;;;;;;;;;;;;;;;;;2201213;59;21410;-70
2022/01/18 09:26:22;;;;;;;;;;;;;;;;;;2206166;63;16920;-69
2022/01/18 09:28:55;;;;;;;;;;;;;;;;;;2196332;59;17936;-69
2022/01/18 09:31:29;;;;;;;;;;;;;;;;;;2201168;59;24328;-69
2022/01/18 09:34:02;;;;;;;;;;;;;;;;;;2205852;59;27867;-70
2022/01/18 09:36:38;;;;;;;;;;;;;;;;;;2205101;59;15242;-70
2022/01/18 09:39:11;;;;;;;;;;;;;;;;;;2203480;59;17336;-70
2022/01/18 09:41:50;;;;;;;;;;;;;;;;;;2204726;59;21642;-69
2022/01/18 09:44:23;;;;;;;;;;;;;;;;;;2206389;59;14836;-70
2022/01/18 09:46:57;;;;;;;;;;;;;;;;;;2204218;59;15987;-70
2022/01/18 09:49:30;;;;;;;;;;;;;;;;;;2197539;59;29593;-70
2022/01/18 09:52:06;;;;;;;;;;;;;;;;;;2199920;59;20293;-69
2022/01/18 09:54:40;;;;;;;;;;;;;;;;;;2199443;59;26401;-69
2022/01/18 09:57:13;;;;;;;;;;;;;;;;;;2195860;64;22776;-70
2022/01/18 09:59:47;;;;;;;;;;;;;;;;;;2198657;59;26513;-69
2022/01/18 10:02:20;;;;;;;;;;;;;;;;;;2202733;59;18913;-69
2022/01/18 10:04:56;;;;;;;;;;;;;;;;;;2198799;59;33712;-69
2022/01/18 10:07:36;;;;;;;;;;;;;;;;;;2204561;59;15350;-70
2022/01/18 10:10:10;;;;;;;;;;;;;;;;;;2203831;59;17118;-70
2022/01/18 10:12:44;;;;;;;;;;;;;;;;;;2210012;59;16365;-70
2022/01/18 10:15:20;;;;;;;;;;;;;;;;;;2203212;67;20304;-70
2022/01/18 10:17:53;;;;;;;;;;;;;;;;;;2204400;64;17769;-70
2022/01/18 10:20:26;;;;;;;;;;;;;;;;;;2203198;67;17484;-70
2022/01/18 10:23:02;;;;;;;;;;;;;;;;;;2204487;59;26152;-70
2022/01/18 10:25:38;;;;;;;;;;;;;;;;;;2203651;59;32629;-70
2022/01/18 10:28:29;;;;;;;;;;;;;;;;;;2203985;59;15143;-70
2022/01/18 10:31:06;;;;;;;;;;;;;;;;;;2204727;59;27067;-70
2022/01/18 10:33:48;;;;;;;;;;;;;;;;;;2198871;59;23852;-70
2022/01/18 10:36:21;;;;;;;;;;;;;;;;;;2200066;59;25344;-70
2022/01/18 10:39:03;;;;;;;;;;;;;;;;;;2203394;59;16977;-70
2022/01/18 10:41:36;;;;;;;;;;;;;;;;;;2202286;59;16357;-70
2022/01/18 10:44:12;;;;;;;;;;;;;;;;;;2195876;59;17949;-70
2022/01/18 10:46:47;;;;;;;;;;;;;;;;;;2200986;59;19376;-70
2022/01/18 10:49:30;;;;;;;;;;;;;;;;;;2206561;59;18912;-70
2022/01/18 10:52:05;;;;;;;;;;;;;;;;;;2198070;59;26943;-70
2022/01/18 10:54:43;;;;;;;;;;;;;;;;;;2203504;66;26106;-70
2022/01/18 10:57:22;;;;;;;;;;;;;;;;;;2194673;59;14646;-69
2022/01/18 10:59:57;;;;;;;;;;;;;;;;;;2197458;59;21289;-70
2022/01/18 11:02:34;;;;;;;;;;;;;;;;;;2206665;59;18794;-70
2022/01/18 11:05:14;;;;;;;;;;;;;;;;;;2202757;59;19088;-70
2022/01/18 11:07:48;;;;;;;;;;;;;;;;;;2205798;59;20042;-69
2022/01/18 11:10:24;;;;;;;;;;;;;;;;;;2198366;67;28825;-70
2022/01/18 11:13:03;;;;;;;;;;;;;;;;;;2201748;67;15046;-70
2022/01/18 11:15:39;;;;;;;;;;;;;;;;;;2206659;67;18246;-70
2022/01/18 11:18:24;;;;;;;;;;;;;;;;;;2206288;63;42598;-70
2022/01/18 11:20:58;;;;;;;;;;;;;;;;;;2198657;59;19968;-70
2022/01/18 11:23:36;;;;;;;;;;;;;;;;;;2204051;59;20135;-70
2022/01/18 11:26:15;;;;;;;;;;;;;;;;;;2203063;59;27546;-70
2022/01/18 11:28:55;;;;;;;;;;;;;;;;;;2205385;67;15907;-70
2022/01/18 11:31:29;;;;;;;;;;;;;;;;;;2202025;59;22783;-70
2022/01/18 11:34:03;;;;;;;;;;;;;;;;;;2199314;59;18791;-70
2022/01/18 11:36:39;;;;;;;;;;;;;;;;;;2196712;59;15065;-70
2022/01/18 11:39:14;;;;;;;;;;;;;;;;;;2197492;59;20994;-70
2022/01/18 11:41:50;;;;;;;;;;;;;;;;;;2200942;67;52836;-70
2022/01/18 11:44:27;;;;;;;;;;;;;;;;;;2202347;59;15089;-70
2022/01/18 11:47:00;;;;;;;;;;;;;;;;;;2199449;59;15779;-70
2022/01/18 11:49:34;;;;;;;;;;;;;;;;;;2205889;59;17045;-69
2022/01/18 11:52:10;;;;;;;;;;;;;;;;;;2205963;59;14010;-70
2022/01/18 11:54:56;;;;;;;;;;;;;;;;;;2193917;59;18475;-70
2022/01/18 11:57:38;;;;;;;;;;;;;;;;;;2196385;59;28549;-70
2022/01/18 12:00:23;;;;;;;;;;;;;;;;;;2198709;59;34105;-70
2022/01/18 12:03:17;;;;;;;;;;;;;;;;;;2204080;59;29289;-70
2022/01/18 12:05:50;;;;;;;;;;;;;;;;;;2198313;59;29449;-70
2022/01/18 12:08:34;;;;;;;;;;;;;;;;;;2195213;59;14291;-70
2022/01/18 12:11:10;;;;;;;;;;;;;;;;;;2199279;59;17008;-70
2022/01/18 12:13:47;;;;;;;;;;;;;;;;;;2204349;64;19189;-70
2022/01/18 12:16:25;;;;;;;;;;;;;;;;;;2203276;67;16342;-70
2022/01/18 12:19:09;;;;;;;;;;;;;;;;;;2209034;59;51482;-70
2022/01/18 12:21:46;;;;;;;;;;;;;;;;;;2205784;67;16541;-70
2022/01/18 12:24:22;;;;;;;;;;;;;;;;;;2200833;59;17241;-70
2022/01/18 12:27:03;;;;;;;;;;;;;;;;;;2211631;59;18511;-70
2022/01/18 12:30:01;;;;;;;;;;;;;;;;;;2200976;63;20859;-70
2022/01/18 12:35:27;;;;;;;;;;;;;;;;;;2199436;59;18545;-70
2022/01/18 12:38:10;;;;;;;;;;;;;;;;;;2206411;64;23509;-71
2022/01/18 12:40:47;;;;;;;;;;;;;;;;;;2203781;59;19631;-70
2022/01/18 12:46:19;;;;;;;;;;;;;;;;;;2202971;59;26185;-70
2022/01/18 12:48:55;;;;;;;;;;;;;;;;;;2205458;59;15063;-70
2022/01/18 12:51:29;;;;;;;;;;;;;;;;;;2203314;59;20693;-70
2022/01/18 12:54:02;;;;;;;;;;;;;;;;;;2195669;59;20414;-70
2022/01/18 12:56:35;;;;;;;;;;;;;;;;;;2198853;64;15879;-70
2022/01/18 12:59:08;;;;;;;;;;;;;;;;;;2196378;59;19142;-70
2022/01/18 13:01:44;;;;;;;;;;;;;;;;;;2198613;59;22128;-70
2022/01/18 13:04:17;;;;;;;;;;;;;;;;;;2204119;59;28970;-71
2022/01/18 13:06:51;;;;;;;;;;;;;;;;;;2204301;59;60839;-70
2022/01/18 13:09:24;;;;;;;;;;;;;;;;;;2205606;59;21898;-70
2022/01/18 13:12:03;;;;;;;;;;;;;;;;;;2204696;59;25530;-70
2022/01/18 13:14:53;;;;;;;;;;;;;;;;;;2194289;59;26134;-70
2022/01/18 13:23:30;;;;;;;;;;;;;;;;;;2197875;59;37892;-71
2022/01/18 13:26:03;;;;;;;;;;;;;;;;;;2209047;53;15121;-69
2022/01/18 13:28:36;;;;;;;;;;;;;;;;;;2202201;58;17173;-69
2022/01/18 13:31:16;;;;;;;;;;;;;;;;;;2200616;59;20661;-69
2022/01/18 13:33:57;;;;;;;;;;;;;;;;;;2208565;59;26351;-70
2022/01/18 13:36:32;;;;;;;;;;;;;;;;;;2197767;59;29666;-69
2022/01/18 13:39:20;;;;;;;;;;;;;;;;;;2200398;59;24951;-69
2022/01/18 13:41:53;;;;;;;;;;;;;;;;;;2200468;59;30149;-69
2022/01/18 13:44:26;;;;;;;;;;;;;;;;;;2200913;59;27463;-70
2022/01/18 13:47:13;;;;;;;;;;;;;;;;;;2201384;59;14550;-69
2022/01/18 13:49:49;;;;;;;;;;;;;;;;;;2200356;59;18597;-69
2022/01/18 13:52:22;;;;;;;;;;;;;;;;;;2201751;59;15971;-69
2022/01/18 13:54:55;;;;;;;;;;;;;;;;;;2201133;59;15637;-69
2022/01/18 13:57:28;;;;;;;;;;;;;;;;;;2199898;59;18417;-69
2022/01/18 14:00:11;;;;;;;;;;;;;;;;;;2200963;59;18394;-70
2022/01/18 14:02:46;;;;;;;;;;;;;;;;;;2199674;59;59587;-70
2022/01/18 14:05:23;;;;;;;;;;;;;;;;;;2200859;59;23077;-70
2022/01/18 14:08:03;;;;;;;;;;;;;;;;;;2199797;59;26926;-71
2022/01/18 14:10:37;;;;;;;;;;;;;;;;;;2200963;66;21459;-69
2022/01/18 14:13:10;;;;;;;;;;;;;;;;;;2201133;66;18464;-70
2022/01/18 14:15:44;;;;;;;;;;;;;;;;;;2199899;64;19454;-70
2022/01/18 14:18:17;;;;;;;;;;;;;;;;;;2201486;64;16766;-69
2022/01/18 14:20:53;;;;;;;;;;;;;;;;;;2201688;59;20268;-70
2022/01/18 14:23:26;;;;;;;;;;;;;;;;;;2200700;58;21167;-70
2022/01/18 14:25:59;;;;;;;;;;;;;;;;;;2201740;59;17909;-70
2022/01/18 14:28:32;;;;;;;;;;;;;;;;;;2201601;66;12955;-69
2022/01/18 14:31:09;;;;;;;;;;;;;;;;;;2201699;59;16661;-70
2022/01/18 14:33:50;;;;;;;;;;;;;;;;;;2200584;59;22861;-69
2022/01/18 14:36:26;;;;;;;;;;;;;;;;;;2200818;59;15342;-69
2022/01/18 14:39:06;;;;;;;;;;;;;;;;;;2201452;59;23744;-69
2022/01/18 14:41:39;;;;;;;;;;;;;;;;;;2200756;66;13861;-70
2022/01/18 14:44:23;;;;;;;;;;;;;;;;;;2201747;59;14339;-70
2022/01/18 14:47:24;;;;;;;;;;;;;;;;;;2197513;59;17663;-69
2022/01/18 14:49:52;;;;;;;;;;;;;;;;;;2200396;59;24520;-69
2022/01/18 14:52:29;;;;;;;;;;;;;;;;;;2201319;58;20084;-69
2022/01/18 14:55:02;;;;;;;;;;;;;;;;;;2201012;66;25735;-70
2022/01/18 14:57:35;;;;;;;;;;;;;;;;;;2200590;59;13891;-69
2022/01/18 15:00:10;;;;;;;;;;;;;;;;;;2201768;59;17373;-69
2022/01/18 15:02:43;;;;;;;;;;;;;;;;;;2201087;66;24132;-69
2022/01/18 15:05:17;;;;;;;;;;;;;;;;;;2200635;59;15295;-69
2022/01/18 15:07:53;;;;;;;;;;;;;;;;;;2200532;66;16264;-70
2022/01/18 15:10:27;;;;;;;;;;;;;;;;;;2201795;59;23559;-69
2022/01/18 15:13:00;;;;;;;;;;;;;;;;;;2201068;59;30153;-70
2022/01/18 15:15:33;;;;;;;;;;;;;;;;;;2200003;66;38323;-69
2022/01/18 15:18:07;;;;;;;;;;;;;;;;;;2201978;59;19921;-69
2022/01/18 15:20:40;;;;;;;;;;;;;;;;;;2201319;66;20208;-69
2022/01/18 15:23:16;;;;;;;;;;;;;;;;;;2200975;59;26707;-69
2022/01/18 15:25:49;;;;;;;;;;;;;;;;;;2200215;59;20251;-69
2022/01/18 15:28:22;;;;;;;;;;;;;;;;;;2201177;66;14639;-69
2022/01/18 15:30:55;;;;;;;;;;;;;;;;;;2201529;59;15688;-69
2022/01/18 15:33:28;;;;;;;;;;;;;;;;;;2200714;59;14296;-69
2022/01/18 15:36:02;;;;;;;;;;;;;;;;;;2200970;59;15965;-70
2022/01/18 15:38:37;;;;;;;;;;;;;;;;;;2201147;59;15315;-69
2022/01/18 15:41:11;;;;;;;;;;;;;;;;;;2201354;59;15729;-70
2022/01/18 15:43:44;;;;;;;;;;;;;;;;;;2200406;63;20412;-69
2022/01/18 15:46:17;;;;;;;;;;;;;;;;;;2200878;59;24006;-69
2022/01/18 15:48:51;;;;;;;;;;;;;;;;;;2201638;59;14945;-69
2022/01/18 15:51:24;;;;;;;;;;;;;;;;;;2200366;59;24395;-69
2022/01/18 15:54:00;;;;;;;;;;;;;;;;;;2201798;59;15928;-69
2022/01/18 15:56:33;;;;;;;;;;;;;;;;;;2201569;66;18074;-69
2022/01/18 15:59:10;;;;;;;;;;;;;;;;;;2201553;59;19585;-69
2022/01/18 16:01:43;;;;;;;;;;;;;;;;;;2200560;59;20074;-70
2022/01/18 16:04:16;;;;;;;;;;;;;;;;;;2201657;64;20858;-69
2022/01/18 16:06:50;;;;;;;;;;;;;;;;;;2201169;59;14308;-69
2022/01/18 16:09:26;;;;;;;;;;;;;;;;;;2200415;59;19039;-70
2022/01/18 16:11:59;;;;;;;;;;;;;;;;;;2202064;64;19893;-70
2022/01/18 16:14:32;;;;;;;;;;;;;;;;;;2201085;59;19295;-69
2022/01/18 16:17:06;;;;;;;;;;;;;;;;;;2197381;67;15408;-69
2022/01/18 16:19:40;;;;;;;;;;;;;;;;;;2199754;59;24460;-69
2022/01/18 16:22:13;;;;;;;;;;;;;;;;;;2201595;59;15226;-69
2022/01/18 16:24:49;;;;;;;;;;;;;;;;;;2201051;59;16068;-69
2022/01/18 16:27:22;;;;;;;;;;;;;;;;;;2200273;59;19719;-70
2022/01/18 16:29:55;;;;;;;;;;;;;;;;;;2201568;66;17307;-69
2022/01/18 16:32:29;;;;;;;;;;;;;;;;;;2200540;59;25189;-69
2022/01/18 16:35:02;;;;;;;;;;;;;;;;;;2200337;59;14112;-69
2022/01/18 16:37:36;;;;;;;;;;;;;;;;;;2200135;64;18960;-69
2022/01/18 16:40:13;;;;;;;;;;;;;;;;;;2201911;59;19441;-69
2022/01/18 16:42:48;;;;;;;;;;;;;;;;;;2201538;63;14688;-69
2022/01/18 16:45:22;;;;;;;;;;;;;;;;;;2199278;59;18776;-70
2022/01/18 16:47:56;;;;;;;;;;;;;;;;;;2200949;59;30057;-69
2022/01/18 16:50:29;;;;;;;;;;;;;;;;;;2201071;59;32016;-69
2022/01/18 16:53:02;;;;;;;;;;;;;;;;;;2201235;59;25331;-69
2022/01/18 16:55:39;;;;;;;;;;;;;;;;;;2200390;64;17356;-69
2022/01/18 16:58:12;;;;;;;;;;;;;;;;;;2201826;59;21333;-69
2022/01/18 17:00:45;;;;;;;;;;;;;;;;;;2201341;63;20966;-69
2022/01/18 17:03:19;;;;;;;;;;;;;;;;;;2201261;59;17106;-69
2022/01/18 17:05:52;;;;;;;;;;;;;;;;;;2200360;59;24603;-70
2022/01/18 17:08:25;;;;;;;;;;;;;;;;;;2200759;59;20660;-69
2022/01/18 17:11:01;;;;;;;;;;;;;;;;;;2197855;67;19487;-69
2022/01/18 17:13:35;;;;;;;;;;;;;;;;;;2200603;64;14283;-70
2022/01/18 17:16:08;;;;;;;;;;;;;;;;;;2201142;59;19391;-69
2022/01/18 17:18:41;;;;;;;;;;;;;;;;;;2199593;59;18835;-69
2022/01/18 17:21:14;;;;;;;;;;;;;;;;;;2200308;59;34255;-69
2022/01/18 17:23:48;;;;;;;;;;;;;;;;;;2199277;59;21959;-69
2022/01/18 17:26:24;;;;;;;;;;;;;;;;;;2201720;59;15356;-69
2022/01/18 17:28:57;;;;;;;;;;;;;;;;;;2202436;59;16147;-69
2022/01/18 17:31:30;;;;;;;;;;;;;;;;;;2201143;59;22796;-69
2022/01/18 17:34:03;;;;;;;;;;;;;;;;;;2202593;59;16282;-69
2022/01/18 17:36:37;;;;;;;;;;;;;;;;;;2201303;59;28097;-69
2022/01/18 17:39:10;;;;;;;;;;;;;;;;;;2203241;59;15207;-69
2022/01/18 17:41:46;;;;;;;;;;;;;;;;;;2201141;66;16114;-69
2022/01/18 17:44:19;;;;;;;;;;;;;;;;;;2202054;59;16790;-69
2022/01/18 17:46:53;;;;;;;;;;;;;;;;;;2201247;59;20406;-69
2022/01/18 17:49:26;;;;;;;;;;;;;;;;;;2197329;67;26039;-69
2022/01/18 17:52:00;;;;;;;;;;;;;;;;;;2201507;59;16144;-69
2022/01/18 17:54:33;;;;;;;;;;;;;;;;;;2201891;67;18023;-69
2022/01/18 17:57:10;;;;;;;;;;;;;;;;;;2202060;59;17315;-69
2022/01/18 17:59:43;;;;;;;;;;;;;;;;;;2200491;59;18290;-69
2022/01/18 18:02:16;;;;;;;;;;;;;;;;;;2202110;64;15277;-69
2022/01/18 18:04:49;;;;;;;;;;;;;;;;;;2199120;59;107696;-69
2022/01/18 18:07:22;;;;;;;;;;;;;;;;;;2200780;59;22154;-69
2022/01/18 18:09:55;;;;;;;;;;;;;;;;;;2201915;66;27247;-69
2022/01/18 18:12:31;;;;;;;;;;;;;;;;;;2201894;59;13954;-69
2022/01/18 18:15:04;;;;;;;;;;;;;;;;;;2200470;59;22715;-69
2022/01/18 18:17:38;;;;;;;;;;;;;;;;;;2200844;59;19653;-69
2022/01/18 18:20:11;;;;;;;;;;;;;;;;;;2202382;66;14758;-69
2022/01/18 18:22:44;;;;;;;;;;;;;;;;;;2206537;58;14632;-69
2022/01/18 18:25:18;;;;;;;;;;;;;;;;;;2200659;59;14071;-69
2022/01/18 18:27:54;;;;;;;;;;;;;;;;;;2200463;64;16182;-69
2022/01/18 18:30:28;;;;;;;;;;;;;;;;;;2203159;59;15808;-69
2022/01/18 18:33:01;;;;;;;;;;;;;;;;;;2204487;59;22707;-69
2022/01/18 18:35:35;;;;;;;;;;;;;;;;;;2201879;59;14923;-69
2022/01/18 18:38:10;;;;;;;;;;;;;;;;;;2202045;59;25051;-69
2022/01/18 18:40:48;;;;;;;;;;;;;;;;;;2201242;59;17820;-69